createdAt,value
2022-08-23T00:00:22.380Z,0.00
2022-08-23T00:01:24.246Z,0.00
2022-08-23T00:02:23.201Z,0.00
2022-08-23T00:03:22.386Z,0.00
2022-08-23T00:04:22.322Z,0.00
2022-08-23T00:05:23.332Z,0.00
2022-08-23T00:06:22.305Z,0.00
2022-08-23T00:07:22.283Z,0.00
2022-08-23T00:08:22.327Z,0.00
2022-08-23T00:09:22.273Z,0.00
2022-08-23T00:10:22.259Z,0.00
2022-08-23T00:11:22.266Z,0.00
2022-08-23T00:12:22.235Z,0.00
2022-08-23T00:13:22.265Z,0.00
2022-08-23T00:14:22.255Z,0.00
2022-08-23T00:15:22.217Z,0.00
2022-08-23T00:16:22.187Z,0.00
2022-08-23T00:17:34.508Z,0.00
2022-08-23T00:18:23.204Z,0.00
2022-08-23T00:19:22.187Z,0.00
2022-08-23T00:20:22.172Z,0.00
2022-08-23T00:21:22.135Z,0.00
2022-08-23T00:22:22.129Z,0.00
2022-08-23T00:23:22.120Z,0.00
2022-08-23T00:24:22.115Z,0.00
2022-08-23T00:25:22.121Z,0.00
2022-08-23T00:26:22.083Z,0.00
2022-08-23T00:27:22.063Z,0.00
2022-08-23T00:28:22.071Z,0.00
2022-08-23T00:29:22.050Z,0.00
2022-08-23T00:30:22.091Z,0.00
2022-08-23T00:31:22.044Z,0.00
2022-08-23T00:32:22.016Z,0.00
2022-08-23T00:33:22.014Z,0.00
2022-08-23T00:34:22.003Z,0.00
2022-08-23T00:35:27.074Z,0.00
2022-08-23T00:36:23.034Z,0.00
2022-08-23T00:37:21.993Z,0.00
2022-08-23T00:38:34.442Z,0.00
2022-08-23T00:39:22.941Z,0.00
2022-08-23T00:40:21.962Z,0.00
2022-08-23T00:41:21.935Z,0.00
2022-08-23T00:42:21.906Z,0.00
2022-08-23T00:43:21.904Z,0.00
2022-08-23T00:44:21.892Z,0.00
2022-08-23T00:45:21.872Z,0.00
2022-08-23T00:46:21.886Z,0.00
2022-08-23T00:47:21.847Z,0.00
2022-08-23T00:48:21.857Z,0.00
2022-08-23T00:49:21.826Z,0.00
2022-08-23T00:50:23.512Z,0.00
2022-08-23T00:51:21.823Z,0.00
2022-08-23T00:52:21.810Z,0.00
2022-08-23T00:53:21.788Z,0.00
2022-08-23T00:54:21.809Z,0.00
2022-08-23T00:55:21.749Z,0.00
2022-08-23T00:56:21.761Z,0.00
2022-08-23T00:57:21.782Z,0.00
2022-08-23T00:58:21.731Z,0.00
2022-08-23T00:59:21.715Z,0.00
2022-08-23T01:00:21.721Z,0.00
2022-08-23T01:01:21.727Z,0.00
2022-08-23T01:02:21.691Z,0.00
2022-08-23T01:03:21.695Z,0.00
2022-08-23T01:04:21.677Z,0.00
2022-08-23T01:05:21.904Z,0.00
2022-08-23T01:06:21.663Z,0.00
2022-08-23T01:07:21.635Z,0.00
2022-08-23T01:08:21.664Z,0.00
2022-08-23T01:09:21.614Z,0.00
2022-08-23T01:10:21.593Z,0.00
2022-08-23T01:11:21.608Z,0.00
2022-08-23T01:12:31.080Z,0.00
2022-08-23T01:13:22.586Z,0.00
2022-08-23T01:14:21.545Z,0.00
2022-08-23T01:15:21.535Z,0.00
2022-08-23T01:16:21.543Z,0.00
2022-08-23T01:17:21.523Z,0.00
2022-08-23T01:18:21.526Z,0.00
2022-08-23T01:19:21.492Z,0.00
2022-08-23T01:20:21.513Z,0.00
2022-08-23T01:21:21.469Z,0.00
2022-08-23T01:22:21.487Z,0.00
2022-08-23T01:23:21.480Z,0.00
2022-08-23T01:25:05.810Z,0.00
2022-08-23T01:25:22.434Z,0.00
2022-08-23T01:26:21.767Z,0.00
2022-08-23T01:27:21.407Z,0.00
2022-08-23T01:28:21.392Z,0.00
2022-08-23T01:29:21.380Z,0.00
2022-08-23T01:30:21.397Z,0.00
2022-08-23T01:31:21.397Z,0.00
2022-08-23T01:32:21.349Z,0.00
2022-08-23T01:33:21.340Z,0.00
2022-08-23T01:34:21.346Z,0.00
2022-08-23T01:36:21.335Z,0.00
2022-08-23T01:37:21.293Z,0.00
2022-08-23T01:38:21.296Z,0.00
2022-08-23T01:39:21.274Z,0.00
2022-08-23T01:40:21.362Z,0.00
2022-08-23T01:41:21.244Z,0.00
2022-08-23T01:42:21.259Z,0.00
2022-08-23T01:43:21.279Z,0.00
2022-08-23T01:44:21.225Z,0.00
2022-08-23T01:45:21.204Z,0.00
2022-08-23T01:46:21.186Z,0.00
2022-08-23T01:47:21.198Z,0.00
2022-08-23T01:48:21.169Z,0.00
2022-08-23T01:49:21.211Z,0.00
2022-08-23T01:50:21.139Z,0.00
2022-08-23T01:51:21.154Z,0.00
2022-08-23T01:52:21.122Z,0.00
2022-08-23T01:53:21.110Z,0.00
2022-08-23T01:54:21.107Z,0.00
2022-08-23T01:55:21.150Z,0.00
2022-08-23T01:56:27.656Z,0.00
2022-08-23T01:57:22.079Z,0.00
2022-08-23T01:58:21.072Z,0.00
2022-08-23T01:59:21.050Z,0.00
2022-08-23T02:00:21.075Z,0.00
2022-08-23T02:01:21.086Z,0.00
2022-08-23T02:02:21.050Z,0.00
2022-08-23T02:03:21.000Z,0.00
2022-08-23T02:04:21.023Z,0.00
2022-08-23T02:05:21.089Z,0.00
2022-08-23T02:06:20.968Z,0.00
2022-08-23T02:07:20.974Z,0.00
2022-08-23T02:08:20.942Z,0.00
2022-08-23T02:09:20.950Z,0.00
2022-08-23T02:10:21.942Z,0.00
2022-08-23T02:11:20.915Z,0.00
2022-08-23T02:12:20.913Z,0.00
2022-08-23T02:13:20.910Z,0.00
2022-08-23T02:14:20.878Z,0.00
2022-08-23T02:15:20.882Z,0.00
2022-08-23T02:16:20.923Z,0.00
2022-08-23T02:17:20.868Z,0.00
2022-08-23T02:18:20.865Z,0.00
2022-08-23T02:19:20.837Z,0.00
2022-08-23T02:20:20.827Z,0.00
2022-08-23T02:21:20.848Z,0.00
2022-08-23T02:22:20.795Z,0.00
2022-08-23T02:23:20.802Z,0.00
2022-08-23T02:24:20.809Z,0.00
2022-08-23T02:25:20.757Z,0.00
2022-08-23T02:26:20.767Z,0.00
2022-08-23T02:27:21.778Z,0.00
2022-08-23T02:28:20.724Z,0.00
2022-08-23T02:29:20.741Z,0.00
2022-08-23T02:30:20.724Z,0.00
2022-08-23T02:31:20.734Z,0.00
2022-08-23T02:32:20.719Z,0.00
2022-08-23T02:33:20.688Z,0.00
2022-08-23T02:34:20.691Z,0.00
2022-08-23T02:35:20.643Z,0.00
2022-08-23T02:37:20.699Z,0.00
2022-08-23T02:38:20.654Z,0.00
2022-08-23T02:39:20.653Z,0.00
2022-08-23T02:40:20.656Z,0.00
2022-08-23T02:41:20.623Z,0.00
2022-08-23T02:42:20.598Z,0.00
2022-08-23T02:43:20.580Z,0.00
2022-08-23T02:44:20.561Z,0.00
2022-08-23T02:45:20.565Z,0.00
2022-08-23T02:46:20.545Z,0.00
2022-08-23T02:47:20.556Z,0.00
2022-08-23T02:48:20.536Z,0.00
2022-08-23T02:49:20.547Z,0.00
2022-08-23T02:50:21.437Z,0.00
2022-08-23T02:51:20.497Z,0.00
2022-08-23T02:52:20.471Z,0.00
2022-08-23T02:53:20.478Z,0.00
2022-08-23T02:54:20.481Z,0.00
2022-08-23T02:55:20.485Z,0.00
2022-08-23T02:56:21.803Z,0.00
2022-08-23T02:57:20.414Z,0.00
2022-08-23T02:58:20.408Z,0.00
2022-08-23T02:59:20.422Z,0.00
2022-08-23T03:00:20.392Z,0.00
2022-08-23T03:01:20.373Z,0.00
2022-08-23T03:02:20.413Z,0.00
2022-08-23T03:03:20.392Z,0.00
2022-08-23T03:04:20.365Z,0.00
2022-08-23T03:05:20.823Z,0.00
2022-08-23T03:06:25.683Z,0.00
2022-08-23T03:07:21.330Z,0.00
2022-08-23T03:08:20.287Z,0.00
2022-08-23T03:09:20.303Z,0.00
2022-08-23T03:10:20.297Z,0.00
2022-08-23T03:11:20.266Z,0.00
2022-08-23T03:12:20.294Z,0.00
2022-08-23T03:13:20.255Z,0.00
2022-08-23T03:14:20.243Z,0.00
2022-08-23T03:15:20.235Z,0.00
2022-08-23T03:16:20.236Z,0.00
2022-08-23T03:17:20.230Z,0.00
2022-08-23T03:18:20.237Z,0.00
2022-08-23T03:19:20.190Z,0.00
2022-08-23T03:20:20.172Z,0.00
2022-08-23T03:21:20.172Z,0.00
2022-08-23T03:22:20.130Z,0.00
2022-08-23T03:23:20.139Z,0.00
2022-08-23T03:24:20.167Z,0.00
2022-08-23T03:25:20.109Z,0.00
2022-08-23T03:26:20.121Z,0.00
2022-08-23T03:27:20.099Z,0.00
2022-08-23T03:28:20.125Z,0.00
2022-08-23T03:29:20.102Z,0.00
2022-08-23T03:30:20.232Z,0.00
2022-08-23T03:31:20.053Z,0.00
2022-08-23T03:32:20.066Z,0.00
2022-08-23T03:33:20.045Z,0.00
2022-08-23T03:34:20.037Z,0.00
2022-08-23T03:35:20.006Z,0.00
2022-08-23T03:36:19.994Z,0.00
2022-08-23T03:37:21.040Z,0.00
2022-08-23T03:38:19.973Z,0.00
2022-08-23T03:39:19.955Z,0.00
2022-08-23T03:40:19.979Z,0.00
2022-08-23T03:41:19.929Z,0.00
2022-08-23T03:42:19.925Z,0.00
2022-08-23T03:43:19.944Z,0.00
2022-08-23T03:44:19.907Z,0.00
2022-08-23T03:45:19.883Z,0.00
2022-08-23T03:46:19.875Z,0.00
2022-08-23T03:47:19.894Z,0.00
2022-08-23T03:48:19.855Z,0.00
2022-08-23T03:49:20.286Z,0.00
2022-08-23T03:50:19.840Z,0.00
2022-08-23T03:51:20.003Z,0.00
2022-08-23T03:52:19.807Z,0.00
2022-08-23T03:53:19.828Z,0.00
2022-08-23T03:54:19.837Z,0.00
2022-08-23T03:55:19.789Z,0.00
2022-08-23T03:56:19.769Z,0.00
2022-08-23T03:57:19.817Z,0.00
2022-08-23T03:58:19.760Z,0.00
2022-08-23T03:59:19.758Z,0.00
2022-08-23T04:00:20.613Z,0.00
2022-08-23T04:01:19.775Z,0.00
2022-08-23T04:02:19.700Z,0.00
2022-08-23T04:03:19.713Z,0.00
2022-08-23T04:04:19.704Z,0.00
2022-08-23T04:05:19.665Z,0.00
2022-08-23T04:06:19.962Z,4.00
2022-08-23T04:07:19.706Z,4.00
2022-08-23T04:08:31.865Z,4.00
2022-08-23T04:09:20.634Z,0.00
2022-08-23T04:10:19.621Z,4.00
2022-08-23T04:11:19.641Z,4.00
2022-08-23T04:12:19.593Z,4.00
2022-08-23T04:13:19.623Z,8.00
2022-08-23T04:14:19.576Z,4.00
2022-08-23T04:15:19.555Z,8.00
2022-08-23T04:16:19.555Z,8.00
2022-08-23T04:17:19.539Z,8.00
2022-08-23T04:18:19.555Z,12.00
2022-08-23T04:19:19.518Z,12.00
2022-08-23T04:20:19.496Z,16.00
2022-08-23T04:21:19.499Z,20.00
2022-08-23T04:22:19.472Z,20.00
2022-08-23T04:23:19.507Z,24.00
2022-08-23T04:24:19.523Z,24.00
2022-08-23T04:25:33.269Z,28.00
2022-08-23T04:26:20.438Z,36.00
2022-08-23T04:27:19.430Z,36.00
2022-08-23T04:28:19.420Z,40.00
2022-08-23T04:29:23.035Z,44.00
2022-08-23T04:30:20.485Z,48.00
2022-08-23T04:31:19.404Z,52.00
2022-08-23T04:32:28.286Z,60.00
2022-08-23T04:33:21.397Z,64.00
2022-08-23T04:34:20.207Z,68.00
2022-08-23T04:35:19.396Z,76.00
2022-08-23T04:36:19.325Z,80.00
2022-08-23T04:37:19.324Z,88.00
2022-08-23T04:38:25.146Z,92.00
2022-08-23T04:39:20.332Z,100.00
2022-08-23T04:40:19.371Z,104.00
2022-08-23T04:41:19.268Z,112.00
2022-08-23T04:42:19.251Z,120.00
2022-08-23T04:43:19.259Z,124.00
2022-08-23T04:44:19.250Z,132.00
2022-08-23T04:45:19.229Z,136.00
2022-08-23T04:46:19.250Z,144.00
2022-08-23T04:47:19.224Z,152.00
2022-08-23T04:48:19.185Z,160.00
2022-08-23T04:49:19.180Z,168.00
2022-08-23T04:50:20.223Z,176.00
2022-08-23T04:51:19.163Z,188.00
2022-08-23T04:52:19.704Z,196.00
2022-08-23T04:53:19.155Z,204.00
2022-08-23T04:54:21.328Z,212.00
2022-08-23T04:55:19.117Z,216.00
2022-08-23T04:56:19.122Z,224.00
2022-08-23T04:57:19.097Z,228.00
2022-08-23T04:58:19.075Z,240.00
2022-08-23T04:59:19.091Z,244.00
2022-08-23T05:00:19.097Z,252.00
2022-08-23T05:01:19.110Z,260.00
2022-08-23T05:02:19.030Z,268.00
2022-08-23T05:03:19.027Z,272.00
2022-08-23T05:04:19.002Z,284.00
2022-08-23T05:05:19.399Z,292.00
2022-08-23T05:06:18.994Z,300.00
2022-08-23T05:07:19.023Z,308.00
2022-08-23T05:08:18.971Z,316.00
2022-08-23T05:09:20.770Z,332.00
2022-08-23T05:10:18.987Z,340.00
2022-08-23T05:11:18.953Z,344.00
2022-08-23T05:12:18.965Z,352.00
2022-08-23T05:13:18.962Z,360.00
2022-08-23T05:14:18.933Z,368.00
2022-08-23T05:15:18.891Z,380.00
2022-08-23T05:16:18.895Z,388.00
2022-08-23T05:17:18.900Z,396.00
2022-08-23T05:18:18.874Z,400.00
2022-08-23T05:19:18.866Z,404.00
2022-08-23T05:20:18.845Z,408.00
2022-08-23T05:21:18.846Z,408.00
2022-08-23T05:22:18.819Z,416.00
2022-08-23T05:23:18.858Z,416.00
2022-08-23T05:24:18.801Z,416.00
2022-08-23T05:25:18.816Z,424.00
2022-08-23T05:26:18.765Z,428.00
2022-08-23T05:27:18.771Z,432.00
2022-08-23T05:28:18.787Z,436.00
2022-08-23T05:29:18.784Z,440.00
2022-08-23T05:30:18.729Z,444.00
2022-08-23T05:31:18.725Z,448.00
2022-08-23T05:32:18.702Z,452.00
2022-08-23T05:33:18.725Z,456.00
2022-08-23T05:34:22.651Z,460.00
2022-08-23T05:35:18.689Z,464.00
2022-08-23T05:36:18.663Z,468.00
2022-08-23T05:37:18.675Z,476.00
2022-08-23T05:38:20.796Z,480.00
2022-08-23T05:39:26.631Z,484.00
2022-08-23T05:40:19.648Z,492.00
2022-08-23T05:41:18.638Z,496.00
2022-08-23T05:42:18.603Z,508.00
2022-08-23T05:43:18.636Z,512.00
2022-08-23T05:44:18.572Z,488.00
2022-08-23T05:45:21.799Z,520.00
2022-08-23T05:46:19.874Z,528.00
2022-08-23T05:47:24.623Z,536.00
2022-08-23T05:48:19.527Z,540.00
2022-08-23T05:49:20.985Z,548.00
2022-08-23T05:50:18.508Z,556.00
2022-08-23T05:51:18.566Z,564.00
2022-08-23T05:52:18.518Z,564.00
2022-08-23T05:53:18.478Z,568.00
2022-08-23T05:54:18.486Z,596.00
2022-08-23T05:55:18.455Z,628.00
2022-08-23T05:56:18.454Z,640.00
2022-08-23T05:57:18.540Z,644.00
2022-08-23T05:58:18.421Z,648.00
2022-08-23T05:59:18.426Z,648.00
2022-08-23T06:00:18.456Z,644.00
2022-08-23T06:01:18.424Z,648.00
2022-08-23T06:02:18.419Z,644.00
2022-08-23T06:03:18.378Z,628.00
2022-08-23T06:04:18.394Z,608.00
2022-08-23T06:05:19.067Z,600.00
2022-08-23T06:06:18.376Z,596.00
2022-08-23T06:07:18.338Z,604.00
2022-08-23T06:08:18.330Z,616.00
2022-08-23T06:09:18.308Z,628.00
2022-08-23T06:10:18.283Z,632.00
2022-08-23T06:11:18.312Z,640.00
2022-08-23T06:12:18.274Z,644.00
2022-08-23T06:13:18.271Z,640.00
2022-08-23T06:14:18.386Z,632.00
2022-08-23T06:15:18.262Z,632.00
2022-08-23T06:16:18.236Z,640.00
2022-08-23T06:17:18.268Z,656.00
2022-08-23T06:18:18.197Z,660.00
2022-08-23T06:19:18.187Z,668.00
2022-08-23T06:20:18.236Z,684.00
2022-08-23T06:21:18.174Z,708.00
2022-08-23T06:22:18.181Z,720.00
2022-08-23T06:23:18.188Z,724.00
2022-08-23T06:24:18.156Z,708.00
2022-08-23T06:25:18.119Z,708.00
2022-08-23T06:26:18.206Z,696.00
2022-08-23T06:27:18.120Z,688.00
2022-08-23T06:28:18.136Z,684.00
2022-08-23T06:29:18.154Z,684.00
2022-08-23T06:30:18.094Z,684.00
2022-08-23T06:31:18.118Z,680.00
2022-08-23T06:32:18.098Z,672.00
2022-08-23T06:33:18.080Z,664.00
2022-08-23T06:34:18.043Z,668.00
2022-08-23T06:35:37.895Z,672.00
2022-08-23T06:36:19.014Z,672.00
2022-08-23T06:37:18.009Z,676.00
2022-08-23T06:38:18.000Z,676.00
2022-08-23T06:39:18.014Z,680.00
2022-08-23T06:40:18.055Z,688.00
2022-08-23T06:41:17.976Z,688.00
2022-08-23T06:42:37.900Z,692.00
2022-08-23T06:43:18.931Z,704.00
2022-08-23T06:44:17.916Z,708.00
2022-08-23T06:45:17.904Z,720.00
2022-08-23T06:46:17.920Z,728.00
2022-08-23T06:47:17.918Z,732.00
2022-08-23T06:48:18.909Z,736.00
2022-08-23T06:49:17.870Z,744.00
2022-08-23T06:50:17.842Z,756.00
2022-08-23T06:51:17.847Z,780.00
2022-08-23T06:52:17.864Z,804.00
2022-08-23T06:53:17.862Z,828.00
2022-08-23T06:54:17.806Z,852.00
2022-08-23T06:55:17.796Z,872.00
2022-08-23T06:56:17.805Z,892.00
2022-08-23T06:57:17.786Z,912.00
2022-08-23T06:58:17.757Z,932.00
2022-08-23T06:59:17.758Z,956.00
2022-08-23T07:00:21.909Z,984.00
2022-08-23T07:01:42.247Z,1020.00
2022-08-23T07:02:18.819Z,1068.00
2022-08-23T07:03:17.712Z,1120.00
2022-08-23T07:04:17.735Z,1172.00
2022-08-23T07:05:17.825Z,1204.00
2022-08-23T07:06:17.670Z,1208.00
2022-08-23T07:07:17.672Z,1196.00
2022-08-23T07:08:17.641Z,1184.00
2022-08-23T07:09:17.640Z,1184.00
2022-08-23T07:10:17.713Z,1180.00
2022-08-23T07:11:17.617Z,1168.00
2022-08-23T07:12:17.612Z,1216.00
2022-08-23T07:13:18.731Z,1268.00
2022-08-23T07:14:17.587Z,1364.00
2022-08-23T07:15:17.605Z,1444.00
2022-08-23T07:16:17.655Z,1552.00
2022-08-23T07:17:17.543Z,1636.00
2022-08-23T07:18:17.551Z,1712.00
2022-08-23T07:19:17.525Z,1760.00
2022-08-23T07:20:17.516Z,1764.00
2022-08-23T07:21:17.568Z,1724.00
2022-08-23T07:22:17.495Z,1652.00
2022-08-23T07:23:17.526Z,1568.00
2022-08-23T07:24:17.476Z,1484.00
2022-08-23T07:25:18.237Z,1388.00
2022-08-23T07:26:17.465Z,1292.00
2022-08-23T07:27:17.466Z,1196.00
2022-08-23T07:28:17.731Z,1128.00
2022-08-23T07:29:17.413Z,1088.00
2022-08-23T07:30:17.425Z,1084.00
2022-08-23T07:31:17.399Z,1096.00
2022-08-23T07:32:18.735Z,1108.00
2022-08-23T07:33:17.370Z,1108.00
2022-08-23T07:34:17.391Z,1092.00
2022-08-23T07:35:17.350Z,1088.00
2022-08-23T07:36:18.383Z,1104.00
2022-08-23T07:37:17.362Z,1136.00
2022-08-23T07:38:17.321Z,1172.00
2022-08-23T07:39:17.310Z,1220.00
2022-08-23T07:40:20.348Z,1264.00
2022-08-23T07:41:17.282Z,1308.00
2022-08-23T07:42:23.735Z,1344.00
2022-08-23T07:43:18.255Z,1376.00
2022-08-23T07:44:18.198Z,1404.00
2022-08-23T07:45:17.285Z,1404.00
2022-08-23T07:46:17.301Z,1376.00
2022-08-23T07:47:17.219Z,1312.00
2022-08-23T07:48:31.827Z,1212.00
2022-08-23T07:49:18.196Z,1056.00
2022-08-23T07:50:17.207Z,964.00
2022-08-23T07:51:17.210Z,836.00
2022-08-23T07:52:17.171Z,828.00
2022-08-23T07:53:17.156Z,808.00
2022-08-23T07:54:18.190Z,776.00
2022-08-23T07:55:17.134Z,856.00
2022-08-23T07:56:17.126Z,760.00
2022-08-23T07:57:17.166Z,772.00
2022-08-23T07:58:17.147Z,848.00
2022-08-23T07:59:17.093Z,872.00
2022-08-23T08:00:17.100Z,872.00
2022-08-23T08:01:17.113Z,876.00
2022-08-23T08:02:17.164Z,876.00
2022-08-23T08:03:17.133Z,876.00
2022-08-23T08:04:17.038Z,880.00
2022-08-23T08:05:21.052Z,884.00
2022-08-23T08:06:17.010Z,888.00
2022-08-23T08:07:20.345Z,892.00
2022-08-23T08:08:16.990Z,892.00
2022-08-23T08:09:16.983Z,892.00
2022-08-23T08:10:16.990Z,896.00
2022-08-23T08:11:17.033Z,900.00
2022-08-23T08:12:17.662Z,900.00
2022-08-23T08:13:16.944Z,904.00
2022-08-23T08:14:16.924Z,904.00
2022-08-23T08:15:16.938Z,912.00
2022-08-23T08:16:17.028Z,916.00
2022-08-23T08:17:16.899Z,916.00
2022-08-23T08:18:16.908Z,924.00
2022-08-23T08:19:16.963Z,928.00
2022-08-23T08:20:16.897Z,928.00
2022-08-23T08:21:16.877Z,936.00
2022-08-23T08:22:16.856Z,936.00
2022-08-23T08:23:16.874Z,940.00
2022-08-23T08:24:16.857Z,944.00
2022-08-23T08:25:16.817Z,944.00
2022-08-23T08:26:16.880Z,944.00
2022-08-23T08:27:16.777Z,948.00
2022-08-23T08:28:16.810Z,952.00
2022-08-23T08:29:16.867Z,952.00
2022-08-23T08:30:16.759Z,952.00
2022-08-23T08:31:16.853Z,956.00
2022-08-23T08:32:16.739Z,964.00
2022-08-23T08:33:16.820Z,968.00
2022-08-23T08:34:16.723Z,968.00
2022-08-23T08:35:16.719Z,968.00
2022-08-23T08:36:16.679Z,976.00
2022-08-23T08:37:16.682Z,980.00
2022-08-23T08:38:16.674Z,984.00
2022-08-23T08:39:16.656Z,988.00
2022-08-23T08:40:16.675Z,992.00
2022-08-23T08:41:16.660Z,988.00
2022-08-23T08:42:17.787Z,992.00
2022-08-23T08:43:16.636Z,1000.00
2022-08-23T08:44:16.607Z,1008.00
2022-08-23T08:45:16.670Z,1016.00
2022-08-23T08:46:16.643Z,1016.00
2022-08-23T08:47:16.586Z,1016.00
2022-08-23T08:48:16.575Z,1020.00
2022-08-23T08:49:16.566Z,1028.00
2022-08-23T08:50:16.565Z,1032.00
2022-08-23T08:51:16.577Z,1040.00
2022-08-23T08:52:16.537Z,1044.00
2022-08-23T08:53:16.579Z,1048.00
2022-08-23T08:54:16.489Z,1048.00
2022-08-23T08:55:16.480Z,1056.00
2022-08-23T08:56:16.594Z,1064.00
2022-08-23T08:57:16.479Z,1068.00
2022-08-23T08:58:16.479Z,1068.00
2022-08-23T08:59:16.451Z,1068.00
2022-08-23T09:00:16.450Z,1076.00
2022-08-23T09:01:16.465Z,1076.00
2022-08-23T09:02:22.037Z,1080.00
2022-08-23T09:03:17.473Z,1080.00
2022-08-23T09:04:16.390Z,1084.00
2022-08-23T09:05:16.539Z,1092.00
2022-08-23T09:06:16.439Z,1100.00
2022-08-23T09:07:16.444Z,1108.00
2022-08-23T09:08:16.351Z,1112.00
2022-08-23T09:09:16.327Z,1116.00
2022-08-23T09:10:16.334Z,1124.00
2022-08-23T09:11:16.323Z,1128.00
2022-08-23T09:12:16.369Z,1136.00
2022-08-23T09:13:16.294Z,1140.00
2022-08-23T09:14:16.275Z,1152.00
2022-08-23T09:15:16.295Z,1168.00
2022-08-23T09:16:16.350Z,1172.00
2022-08-23T09:17:16.295Z,1184.00
2022-08-23T09:18:16.227Z,1204.00
2022-08-23T09:19:16.251Z,1216.00
2022-08-23T09:20:16.246Z,1180.00
2022-08-23T09:21:16.226Z,1244.00
2022-08-23T09:22:16.231Z,1236.00
2022-08-23T09:23:18.190Z,1228.00
2022-08-23T09:24:16.172Z,1216.00
2022-08-23T09:25:16.163Z,1204.00
2022-08-23T09:26:16.171Z,1200.00
2022-08-23T09:27:16.160Z,1212.00
2022-08-23T09:28:16.333Z,1212.00
2022-08-23T09:29:16.122Z,1180.00
2022-08-23T09:30:16.126Z,1200.00
2022-08-23T09:31:16.126Z,1236.00
2022-08-23T09:32:16.092Z,1320.00
2022-08-23T09:33:16.083Z,1320.00
2022-08-23T09:34:16.056Z,1300.00
2022-08-23T09:35:16.065Z,1308.00
2022-08-23T09:36:16.073Z,1292.00
2022-08-23T09:37:16.058Z,1324.00
2022-08-23T09:38:16.011Z,1344.00
2022-08-23T09:39:16.009Z,1368.00
2022-08-23T09:40:16.477Z,1356.00
2022-08-23T09:41:15.984Z,1352.00
2022-08-23T09:42:15.966Z,1360.00
2022-08-23T09:43:15.966Z,1352.00
2022-08-23T09:44:16.261Z,1356.00
2022-08-23T09:45:15.972Z,1344.00
2022-08-23T09:46:16.022Z,1356.00
2022-08-23T09:47:15.928Z,1360.00
2022-08-23T09:48:15.909Z,1360.00
2022-08-23T09:49:15.905Z,1348.00
2022-08-23T09:50:16.009Z,1348.00
2022-08-23T09:51:15.869Z,1372.00
2022-08-23T09:52:16.124Z,1368.00
2022-08-23T09:53:16.873Z,1372.00
2022-08-23T09:54:15.936Z,1388.00
2022-08-23T09:55:15.844Z,1392.00
2022-08-23T09:56:15.831Z,1404.00
2022-08-23T09:57:15.803Z,1416.00
2022-08-23T09:58:15.832Z,1424.00
2022-08-23T09:59:15.826Z,1424.00
2022-08-23T10:00:15.851Z,1416.00
2022-08-23T10:01:15.898Z,1408.00
2022-08-23T10:02:15.768Z,1404.00
2022-08-23T10:03:15.796Z,1416.00
2022-08-23T10:04:15.892Z,1428.00
2022-08-23T10:05:15.769Z,1436.00
2022-08-23T10:06:15.738Z,1436.00
2022-08-23T10:07:15.707Z,1436.00
2022-08-23T10:08:15.704Z,1448.00
2022-08-23T10:09:15.734Z,1460.00
2022-08-23T10:10:15.659Z,1456.00
2022-08-23T10:11:15.660Z,1464.00
2022-08-23T10:12:15.646Z,1460.00
2022-08-23T10:13:15.629Z,1456.00
2022-08-23T10:14:15.633Z,1472.00
2022-08-23T10:15:15.652Z,1480.00
2022-08-23T10:16:15.629Z,1480.00
2022-08-23T10:17:15.599Z,1480.00
2022-08-23T10:18:15.602Z,1500.00
2022-08-23T10:19:15.593Z,1512.00
2022-08-23T10:20:15.582Z,1524.00
2022-08-23T10:21:20.366Z,1540.00
2022-08-23T10:22:16.571Z,1548.00
2022-08-23T10:23:15.546Z,1564.00
2022-08-23T10:24:15.521Z,1572.00
2022-08-23T10:25:15.508Z,1588.00
2022-08-23T10:26:15.506Z,1540.00
2022-08-23T10:27:15.515Z,1600.00
2022-08-23T10:28:15.477Z,1604.00
2022-08-23T10:29:15.466Z,1616.00
2022-08-23T10:30:15.502Z,1624.00
2022-08-23T10:31:15.590Z,1624.00
2022-08-23T10:32:15.427Z,1624.00
2022-08-23T10:33:18.718Z,1636.00
2022-08-23T10:34:15.431Z,1648.00
2022-08-23T10:35:15.402Z,1664.00
2022-08-23T10:36:15.393Z,1688.00
2022-08-23T10:37:15.379Z,1724.00
2022-08-23T10:38:15.372Z,1728.00
2022-08-23T10:39:15.461Z,1764.00
2022-08-23T10:40:15.368Z,1788.00
2022-08-23T10:41:15.330Z,1828.00
2022-08-23T10:42:15.333Z,1860.00
2022-08-23T10:43:15.325Z,1884.00
2022-08-23T10:44:15.356Z,1920.00
2022-08-23T10:45:15.333Z,1916.00
2022-08-23T10:46:15.327Z,1960.00
2022-08-23T10:47:15.275Z,1976.00
2022-08-23T10:48:15.288Z,2020.00
2022-08-23T10:49:15.265Z,2028.00
2022-08-23T10:50:15.269Z,2044.00
2022-08-23T10:51:17.824Z,2056.00
2022-08-23T10:52:16.217Z,2080.00
2022-08-23T10:53:15.205Z,2100.00
2022-08-23T10:54:15.211Z,2132.00
2022-08-23T10:55:15.226Z,2120.00
2022-08-23T10:56:15.206Z,2140.00
2022-08-23T10:57:15.158Z,2160.00
2022-08-23T10:58:15.150Z,2160.00
2022-08-23T10:59:15.179Z,2200.00
2022-08-23T11:00:15.130Z,2248.00
2022-08-23T11:01:15.154Z,2244.00
2022-08-23T11:02:15.236Z,2260.00
2022-08-23T11:03:15.122Z,2328.00
2022-08-23T11:04:15.083Z,2316.00
2022-08-23T11:05:15.183Z,2352.00
2022-08-23T11:06:15.064Z,2396.00
2022-08-23T11:07:15.052Z,2412.00
2022-08-23T11:08:15.052Z,2372.00
2022-08-23T11:09:15.033Z,2368.00
2022-08-23T11:10:17.077Z,2416.00
2022-08-23T11:11:15.010Z,2460.00
2022-08-23T11:12:15.021Z,2532.00
2022-08-23T11:13:15.029Z,2576.00
2022-08-23T11:14:15.000Z,2664.00
2022-08-23T11:15:14.972Z,2604.00
2022-08-23T11:16:15.053Z,2756.00
2022-08-23T11:17:14.963Z,2856.00
2022-08-23T11:18:14.935Z,2936.00
2022-08-23T11:19:15.640Z,3024.00
2022-08-23T11:20:14.924Z,3124.00
2022-08-23T11:21:14.936Z,3172.00
2022-08-23T11:22:14.994Z,3160.00
2022-08-23T11:23:14.927Z,3172.00
2022-08-23T11:24:14.889Z,3160.00
2022-08-23T11:25:14.873Z,3160.00
2022-08-23T11:26:14.828Z,3224.00
2022-08-23T11:27:14.881Z,3252.00
2022-08-23T11:28:14.840Z,3248.00
2022-08-23T11:29:14.839Z,3280.00
2022-08-23T11:30:14.827Z,3260.00
2022-08-23T11:31:14.885Z,3308.00
2022-08-23T11:32:14.847Z,3224.00
2022-08-23T11:33:14.802Z,3136.00
2022-08-23T11:34:15.905Z,2984.00
2022-08-23T11:35:14.828Z,2908.00
2022-08-23T11:36:14.896Z,2920.00
2022-08-23T11:37:14.731Z,2880.00
2022-08-23T11:38:14.722Z,2872.00
2022-08-23T11:39:19.671Z,2868.00
2022-08-23T11:40:18.303Z,2876.00
2022-08-23T11:41:14.730Z,2920.00
2022-08-23T11:42:14.722Z,2960.00
2022-08-23T11:43:14.673Z,2984.00
2022-08-23T11:44:14.661Z,2984.00
2022-08-23T11:45:14.665Z,2952.00
2022-08-23T11:46:14.712Z,2936.00
2022-08-23T11:47:14.679Z,2876.00
2022-08-23T11:48:14.619Z,2940.00
2022-08-23T11:49:14.674Z,2920.00
2022-08-23T11:50:14.880Z,2900.00
2022-08-23T11:51:14.588Z,2868.00
2022-08-23T11:52:14.589Z,2852.00
2022-08-23T11:53:15.307Z,2840.00
2022-08-23T11:54:14.610Z,2812.00
2022-08-23T11:55:14.577Z,2856.00
2022-08-23T11:56:14.732Z,2904.00
2022-08-23T11:57:14.518Z,2956.00
2022-08-23T11:58:14.509Z,3008.00
2022-08-23T11:59:14.522Z,3012.00
2022-08-23T12:00:14.494Z,3028.00
2022-08-23T12:01:14.495Z,3072.00
2022-08-23T12:02:16.105Z,3116.00
2022-08-23T12:03:14.638Z,3168.00
2022-08-23T12:04:14.452Z,3244.00
2022-08-23T12:05:15.007Z,3312.00
2022-08-23T12:06:14.441Z,3356.00
2022-08-23T12:07:14.551Z,3424.00
2022-08-23T12:08:14.399Z,3428.00
2022-08-23T12:09:14.434Z,3424.00
2022-08-23T12:10:14.399Z,3352.00
2022-08-23T12:11:14.398Z,3276.00
2022-08-23T12:12:14.374Z,3284.00
2022-08-23T12:13:14.357Z,3308.00
2022-08-23T12:14:14.350Z,3344.00
2022-08-23T12:15:14.330Z,3288.00
2022-08-23T12:16:17.060Z,3368.00
2022-08-23T12:17:14.319Z,3452.00
2022-08-23T12:18:14.310Z,3516.00
2022-08-23T12:19:14.330Z,3604.00
2022-08-23T12:20:16.351Z,3672.00
2022-08-23T12:21:14.303Z,3720.00
2022-08-23T12:22:14.262Z,3784.00
2022-08-23T12:23:14.250Z,3792.00
2022-08-23T12:24:14.244Z,3736.00
2022-08-23T12:25:14.240Z,3792.00
2022-08-23T12:26:14.263Z,4000.00
2022-08-23T12:27:14.196Z,3956.00
2022-08-23T12:28:14.284Z,4228.00
2022-08-23T12:29:14.249Z,4380.00
2022-08-23T12:30:14.248Z,4552.00
2022-08-23T12:31:14.297Z,4736.00
2022-08-23T12:32:14.149Z,5076.00
2022-08-23T12:33:14.136Z,5380.00
2022-08-23T12:34:14.121Z,5708.00
2022-08-23T12:35:14.133Z,5836.00
2022-08-23T12:36:16.638Z,8524.00
2022-08-23T12:37:14.103Z,37696.00
2022-08-23T12:38:14.083Z,58592.00